createdAt,value
2023-02-12T00:01:08.888Z,97069.94
2023-02-12T00:03:36.007Z,97075.78
2023-02-12T00:06:02.562Z,97067.81
2023-02-12T00:08:29.197Z,97064.47
2023-02-12T00:10:55.857Z,97065.13
2023-02-12T00:13:23.866Z,97074.13
2023-02-12T00:15:50.582Z,97074.66
2023-02-12T00:18:17.145Z,97078.72
2023-02-12T00:20:43.762Z,97077.44
2023-02-12T00:23:11.236Z,97077.06
2023-02-12T00:25:41.333Z,97062.94
2023-02-12T00:28:08.303Z,97064.75
2023-02-12T00:30:35.996Z,97062.97
2023-02-12T00:33:02.808Z,97065.03
2023-02-12T00:35:29.346Z,97068.91
2023-02-12T00:37:56.082Z,97070.28
2023-02-12T00:40:22.598Z,97081.28
2023-02-12T00:42:49.185Z,97077.34
2023-02-12T00:45:17.191Z,97075.38
2023-02-12T00:47:43.768Z,97066.69
2023-02-12T00:50:10.834Z,97056.53
2023-02-12T00:52:37.659Z,97052.34
2023-02-12T00:55:04.924Z,97051.31
2023-02-12T00:57:33.360Z,97057.22
2023-02-12T00:59:59.997Z,97066.00
2023-02-12T01:02:26.541Z,97069.69
2023-02-12T01:04:53.276Z,97067.13
2023-02-12T01:07:22.888Z,97073.69
2023-02-12T01:09:49.487Z,97073.59
2023-02-12T01:12:16.042Z,97071.91
2023-02-12T01:14:42.704Z,97068.34
2023-02-12T01:17:09.674Z,97064.94
2023-02-12T01:19:36.499Z,97061.91
2023-02-12T01:22:03.760Z,97054.69
2023-02-12T01:24:30.326Z,97055.84
2023-02-12T01:26:58.383Z,97048.53
2023-02-12T01:29:24.933Z,97042.03
2023-02-12T01:31:51.630Z,97051.28
2023-02-12T01:34:18.281Z,97061.22
2023-02-12T01:36:44.813Z,97064.75
2023-02-12T01:39:12.074Z,97073.44
2023-02-12T01:41:44.245Z,97076.50
2023-02-12T01:44:13.779Z,97066.38
2023-02-12T01:46:40.797Z,97068.00
2023-02-12T01:49:12.733Z,97073.91
2023-02-12T01:51:40.924Z,97067.88
2023-02-12T01:54:10.426Z,97076.91
2023-02-12T01:56:38.278Z,97074.81
2023-02-12T01:59:05.595Z,97066.94
2023-02-12T02:01:33.580Z,97082.81
2023-02-12T02:04:05.317Z,97074.44
2023-02-12T02:06:36.011Z,97076.00
2023-02-12T02:09:03.760Z,97072.38
2023-02-12T02:11:50.600Z,97079.34
2023-02-12T02:14:32.999Z,97070.59
2023-02-12T02:17:04.740Z,97068.28
2023-02-12T02:19:31.217Z,97059.09
2023-02-12T02:22:17.368Z,97063.69
2023-02-12T02:25:32.002Z,97057.06
2023-02-12T02:28:29.279Z,97054.22
2023-02-12T02:31:08.053Z,97059.69
2023-02-12T02:33:44.451Z,97061.91
2023-02-12T02:36:10.953Z,97069.09
2023-02-12T02:38:55.847Z,97059.69
2023-02-12T02:41:38.954Z,97061.25
2023-02-12T02:44:14.280Z,97061.03
2023-02-12T02:46:49.077Z,97056.03
2023-02-12T02:49:37.416Z,97051.03
2023-02-12T02:52:11.429Z,97048.19
2023-02-12T02:54:44.819Z,97042.44
2023-02-12T02:57:28.124Z,97044.66
2023-02-12T03:00:03.932Z,97044.41
2023-02-12T03:02:37.363Z,97047.03
2023-02-12T03:05:13.117Z,97045.38
2023-02-12T03:07:49.843Z,97043.84
2023-02-12T03:10:45.686Z,97040.91
2023-02-12T03:13:27.389Z,97046.88
2023-02-12T03:16:02.385Z,97043.41
2023-02-12T03:18:36.666Z,97045.72
2023-02-12T03:21:10.688Z,97054.59
2023-02-12T03:23:51.287Z,97060.69
2023-02-12T03:26:24.631Z,97062.03
2023-02-12T03:28:51.527Z,97063.78
2023-02-12T03:31:45.490Z,97070.06
2023-02-12T03:34:27.373Z,97071.63
2023-02-12T03:37:05.416Z,97075.47
2023-02-12T03:39:56.673Z,97076.84
2023-02-12T03:42:38.101Z,97076.56
2023-02-12T03:45:16.898Z,97075.44
2023-02-12T03:48:01.862Z,97073.91
2023-02-12T03:50:48.413Z,97069.41
2023-02-12T03:53:14.989Z,97074.19
2023-02-12T03:55:45.280Z,97073.25
2023-02-12T03:58:19.312Z,97061.56
2023-02-12T04:00:46.530Z,97064.13
2023-02-12T04:03:13.420Z,97062.44
2023-02-12T04:05:40.036Z,97077.25
2023-02-12T04:08:11.172Z,97076.94
2023-02-12T04:11:13.075Z,97084.03
2023-02-12T04:13:53.720Z,97080.41
2023-02-12T04:16:44.319Z,97089.47
2023-02-12T04:19:14.882Z,97096.47
2023-02-12T04:21:59.788Z,97101.53
2023-02-12T04:24:40.062Z,97101.38
2023-02-12T04:27:45.978Z,97094.50
2023-02-12T04:30:25.022Z,97088.56
2023-02-12T04:33:03.572Z,97092.88
2023-02-12T04:35:35.783Z,97100.03
2023-02-12T04:38:08.677Z,97105.13
2023-02-12T04:40:38.475Z,97098.94
2023-02-12T04:43:05.123Z,97109.19
2023-02-12T04:45:34.106Z,97102.88
2023-02-12T04:48:01.635Z,97107.69
2023-02-12T04:50:42.009Z,97103.91
2023-02-12T04:53:10.186Z,97103.56
2023-02-12T04:55:36.716Z,97104.22
2023-02-12T04:58:03.555Z,97109.44
2023-02-12T05:00:30.202Z,97104.03
2023-02-12T05:02:56.900Z,97106.41
2023-02-12T05:05:23.540Z,97106.06
2023-02-12T05:07:50.242Z,97104.75
2023-02-12T05:10:16.987Z,97103.25
2023-02-12T05:12:43.526Z,97102.53
2023-02-12T05:15:10.623Z,97097.97
2023-02-12T05:17:38.136Z,97108.00
2023-02-12T05:20:05.848Z,97113.97
2023-02-12T05:22:32.355Z,97120.03
2023-02-12T05:24:58.881Z,97119.41
2023-02-12T05:27:25.472Z,97126.75
2023-02-12T05:29:52.021Z,97128.41
2023-02-12T05:32:18.600Z,97119.84
2023-02-12T05:34:45.235Z,97122.25
2023-02-12T05:37:11.905Z,97125.97
2023-02-12T05:39:38.539Z,97127.31
2023-02-12T05:42:05.089Z,97128.41
2023-02-12T05:44:31.651Z,97129.81
2023-02-12T05:46:58.160Z,97134.47
2023-02-12T05:49:24.725Z,97130.41
2023-02-12T05:51:51.257Z,97136.34
2023-02-12T05:54:17.802Z,97135.81
2023-02-12T05:56:46.562Z,97120.69
2023-02-12T05:59:17.463Z,97125.72
2023-02-12T06:01:45.713Z,97131.03
2023-02-12T06:04:20.265Z,97130.47
2023-02-12T06:06:47.118Z,97123.59
2023-02-12T06:09:14.711Z,97116.78
2023-02-12T06:11:41.960Z,97130.03
2023-02-12T06:14:11.021Z,97133.47
2023-02-12T06:16:37.633Z,97140.94
2023-02-12T06:19:05.826Z,97146.91
2023-02-12T06:21:33.514Z,97137.75
2023-02-12T06:24:00.350Z,97151.00
2023-02-12T06:26:27.606Z,97153.59
2023-02-12T06:28:54.252Z,97155.84
2023-02-12T06:31:35.617Z,97158.34
2023-02-12T06:34:05.795Z,97158.16
2023-02-12T06:36:32.543Z,97160.16
2023-02-12T06:39:02.299Z,97162.56
2023-02-12T06:41:28.991Z,97162.38
2023-02-12T06:43:55.578Z,97169.66
2023-02-12T06:46:22.768Z,97163.03
2023-02-12T06:48:53.447Z,97161.22
2023-02-12T06:51:23.608Z,97172.13
2023-02-12T06:53:51.363Z,97173.91
2023-02-12T06:56:18.564Z,97162.72
2023-02-12T06:58:47.447Z,97162.13
2023-02-12T07:01:17.919Z,97165.78
2023-02-12T07:03:49.132Z,97166.25
2023-02-12T07:06:16.193Z,97166.44
2023-02-12T07:08:43.057Z,97174.44
2023-02-12T07:11:09.784Z,97173.03
2023-02-12T07:13:36.563Z,97169.47
2023-02-12T07:16:08.624Z,97171.38
2023-02-12T07:18:36.108Z,97176.72
2023-02-12T07:21:03.542Z,97173.06
2023-02-12T07:23:31.050Z,97166.19
2023-02-12T07:26:02.506Z,97175.72
2023-02-12T07:28:29.112Z,97178.88
2023-02-12T07:30:55.689Z,97175.03
2023-02-12T07:33:22.264Z,97164.19
2023-02-12T07:35:48.868Z,97161.38
2023-02-12T07:38:15.540Z,97161.16
2023-02-12T07:40:42.060Z,97161.31
2023-02-12T07:43:08.571Z,97157.38
2023-02-12T07:45:36.116Z,97152.56
2023-02-12T07:48:02.675Z,97157.28
2023-02-12T07:50:29.216Z,97154.66
2023-02-12T07:52:55.847Z,97152.47
2023-02-12T07:55:22.590Z,97152.28
2023-02-12T07:57:49.144Z,97149.03
2023-02-12T08:00:16.168Z,97149.97
2023-02-12T08:02:42.713Z,97148.59
2023-02-12T08:05:09.585Z,97150.31
2023-02-12T08:07:36.210Z,97152.47
2023-02-12T08:10:02.829Z,97155.53
2023-02-12T08:12:29.403Z,97154.34
2023-02-12T08:14:55.921Z,97158.34
2023-02-12T08:17:22.420Z,97148.00
2023-02-12T08:19:49.003Z,97138.03
2023-02-12T08:22:15.577Z,97147.16
2023-02-12T08:24:42.645Z,97151.44
2023-02-12T08:27:09.139Z,97145.38
2023-02-12T08:29:35.712Z,97154.56
2023-02-12T08:32:03.917Z,97146.94
2023-02-12T08:34:35.234Z,97158.75
2023-02-12T08:37:04.177Z,97154.34
2023-02-12T08:39:31.104Z,97151.91
2023-02-12T08:41:59.565Z,97149.16
2023-02-12T08:44:26.355Z,97152.59
2023-02-12T08:46:55.538Z,97146.50
2023-02-12T08:49:25.580Z,97147.63
2023-02-12T08:51:54.653Z,97153.75
2023-02-12T08:54:23.954Z,97143.56
2023-02-12T08:56:54.051Z,97137.44
2023-02-12T08:59:20.657Z,97134.22
2023-02-12T09:01:51.099Z,97140.13
2023-02-12T09:04:26.184Z,97139.09
2023-02-12T09:06:53.110Z,97140.06
2023-02-12T09:09:19.958Z,97137.72
2023-02-12T09:11:46.863Z,97144.53
2023-02-12T09:14:16.065Z,97145.03
2023-02-12T09:16:43.032Z,97134.84
2023-02-12T09:19:12.889Z,97135.28
2023-02-12T09:21:39.581Z,97133.16
2023-02-12T09:24:06.280Z,97136.72
2023-02-12T09:26:32.901Z,97142.97
2023-02-12T09:29:01.411Z,97140.19
2023-02-12T09:31:30.051Z,97146.75
2023-02-12T09:34:02.556Z,97146.75
2023-02-12T09:36:29.759Z,97149.28
2023-02-12T09:38:59.150Z,97145.69
2023-02-12T09:42:00.189Z,97147.28
2023-02-12T09:44:36.237Z,97141.19
2023-02-12T09:47:26.816Z,97144.56
2023-02-12T09:50:03.499Z,97141.56
2023-02-12T09:52:30.942Z,97141.19
2023-02-12T09:54:58.591Z,97137.16
2023-02-12T09:57:33.668Z,97146.47
2023-02-12T10:00:08.478Z,97144.03
2023-02-12T10:02:40.217Z,97147.31
2023-02-12T10:05:17.591Z,97143.53
2023-02-12T10:07:53.548Z,97142.44
2023-02-12T10:10:23.308Z,97139.09
2023-02-12T10:12:56.069Z,97149.88
2023-02-12T10:15:34.862Z,97148.25
2023-02-12T10:18:30.150Z,97148.75
2023-02-12T10:21:11.035Z,97143.63
2023-02-12T10:24:06.983Z,97148.41
2023-02-12T10:26:40.033Z,97153.38
2023-02-12T10:29:28.784Z,97146.34
2023-02-12T10:31:59.982Z,97140.50
2023-02-12T10:34:32.745Z,97144.03
2023-02-12T10:37:23.294Z,97145.72
2023-02-12T10:39:58.024Z,97141.13
2023-02-12T10:42:42.759Z,97141.38
2023-02-12T10:45:18.380Z,97143.56
2023-02-12T10:47:46.697Z,97144.00
2023-02-12T10:50:37.934Z,97141.50
2023-02-12T10:53:04.513Z,97134.75
2023-02-12T10:55:36.877Z,97132.91
2023-02-12T10:58:05.371Z,97128.81
2023-02-12T11:00:34.653Z,97132.34
2023-02-12T11:03:13.670Z,97135.22
2023-02-12T11:05:42.466Z,97133.56
2023-02-12T11:08:31.332Z,97131.03
2023-02-12T11:11:10.826Z,97125.78
2023-02-12T11:13:41.671Z,97115.00
2023-02-12T11:16:08.989Z,97118.25
2023-02-12T11:18:37.401Z,97113.22
2023-02-12T11:21:10.384Z,97112.13
2023-02-12T11:23:38.315Z,97103.66
2023-02-12T11:26:18.499Z,97100.19
2023-02-12T11:29:19.017Z,97106.00
2023-02-12T11:32:01.757Z,97102.75
2023-02-12T11:34:29.773Z,97102.88
2023-02-12T11:36:57.728Z,97106.63
2023-02-12T11:39:28.955Z,97104.00
2023-02-12T11:42:03.788Z,97103.22
2023-02-12T11:44:36.017Z,97103.56
2023-02-12T11:47:09.211Z,97108.59
2023-02-12T11:49:44.395Z,97099.94
2023-02-12T11:52:27.625Z,97102.19
2023-02-12T11:54:59.512Z,97105.28
2023-02-12T11:57:38.231Z,97102.47
2023-02-12T12:00:19.409Z,97099.03
2023-02-12T12:03:02.575Z,97093.16
2023-02-12T12:05:38.702Z,97095.63
2023-02-12T12:08:16.751Z,97090.47
2023-02-12T12:10:52.835Z,97092.09
2023-02-12T12:13:27.239Z,97090.13
2023-02-12T12:16:46.700Z,97094.31
2023-02-12T12:19:56.778Z,97098.38
2023-02-12T12:22:51.671Z,97092.03
2023-02-12T12:25:27.279Z,97085.97
2023-02-12T12:28:08.250Z,97078.69
2023-02-12T12:30:41.056Z,97077.56
2023-02-12T12:33:17.176Z,97080.25
2023-02-12T12:36:13.014Z,97076.81
2023-02-12T12:38:58.966Z,97064.97
2023-02-12T12:42:03.133Z,97070.63
2023-02-12T12:45:01.841Z,97057.94
2023-02-12T12:47:54.728Z,97063.28
2023-02-12T12:50:43.360Z,97059.22
2023-02-12T12:53:20.023Z,97062.00
2023-02-12T12:56:11.456Z,97063.97
2023-02-12T12:58:44.037Z,97059.59
2023-02-12T13:01:10.977Z,97061.53
2023-02-12T13:03:56.317Z,97053.41
2023-02-12T13:06:41.184Z,97058.63
2023-02-12T13:09:33.459Z,97056.78
2023-02-12T13:12:28.263Z,97053.72
2023-02-12T13:14:57.704Z,97054.44
2023-02-12T13:17:33.335Z,97050.63
2023-02-12T13:20:09.606Z,97045.72
2023-02-12T13:22:59.155Z,97051.59
2023-02-12T13:25:36.008Z,97048.88
2023-02-12T13:28:05.871Z,97046.84
2023-02-12T13:30:52.555Z,97047.72
2023-02-12T13:33:28.861Z,97049.19
2023-02-12T13:36:00.341Z,97049.09
2023-02-12T13:38:34.573Z,97047.81
2023-02-12T13:41:05.777Z,97043.69
2023-02-12T13:43:53.633Z,97043.94
2023-02-12T13:47:04.662Z,97034.16
2023-02-12T13:49:39.849Z,97038.63
2023-02-12T13:52:14.178Z,97044.69
2023-02-12T13:54:46.436Z,97039.41
2023-02-12T13:57:18.834Z,97044.63
2023-02-12T13:59:47.888Z,97045.88
2023-02-12T14:02:33.095Z,97040.72
2023-02-12T14:05:13.073Z,97039.69
2023-02-12T14:07:44.101Z,97043.59
2023-02-12T14:10:31.161Z,97042.78
2023-02-12T14:13:12.485Z,97035.91
2023-02-12T14:15:46.100Z,97037.13
2023-02-12T14:18:30.672Z,97040.16
2023-02-12T14:21:11.984Z,97051.34
2023-02-12T14:23:50.701Z,97046.38
2023-02-12T14:26:25.014Z,97037.59
2023-02-12T14:29:01.902Z,97045.22
2023-02-12T14:31:39.295Z,97038.72
2023-02-12T14:34:06.039Z,97049.22
2023-02-12T14:36:32.663Z,97048.25
2023-02-12T14:39:01.373Z,97046.94
2023-02-12T14:41:43.046Z,97040.72
2023-02-12T14:44:20.462Z,97042.66
2023-02-12T14:46:55.908Z,97032.25
2023-02-12T14:49:31.135Z,97038.03
2023-02-12T14:51:57.948Z,97031.13
2023-02-12T14:54:33.230Z,97037.50
2023-02-12T14:57:04.999Z,97037.66
2023-02-12T14:59:37.632Z,97032.84
2023-02-12T15:02:07.633Z,97038.03
2023-02-12T15:04:38.073Z,97031.19
2023-02-12T15:07:10.406Z,97037.69
2023-02-12T15:09:42.470Z,97038.66
2023-02-12T15:12:32.627Z,97033.56
2023-02-12T15:15:12.565Z,97026.13
2023-02-12T15:17:42.305Z,97018.78
2023-02-12T15:20:22.495Z,97022.22
2023-02-12T15:22:49.034Z,97031.78
2023-02-12T15:25:26.847Z,97025.63
2023-02-12T15:28:02.862Z,97027.94
2023-02-12T15:30:34.118Z,97030.88
2023-02-12T15:33:04.920Z,97035.81
2023-02-12T15:35:34.281Z,97035.63
2023-02-12T15:38:01.868Z,97036.53
2023-02-12T15:40:30.785Z,97035.34
2023-02-12T15:42:59.076Z,97037.94
2023-02-12T15:45:34.776Z,97033.88
2023-02-12T15:48:15.732Z,97036.69
2023-02-12T15:51:14.131Z,97043.25
2023-02-12T15:53:41.563Z,97034.91
2023-02-12T15:56:18.141Z,97040.31
2023-02-12T15:58:52.314Z,97041.25
2023-02-12T16:01:21.707Z,97040.91
2023-02-12T16:03:57.954Z,97040.09
2023-02-12T16:06:27.244Z,97046.28
2023-02-12T16:09:23.201Z,97039.94
2023-02-12T16:11:50.330Z,97038.72
2023-02-12T16:14:40.752Z,97036.94
2023-02-12T16:17:35.155Z,97036.94
2023-02-12T16:20:04.288Z,97038.59
2023-02-12T16:22:41.983Z,97033.81
2023-02-12T16:25:32.196Z,97031.97
2023-02-12T16:28:03.916Z,97040.19
2023-02-12T16:30:42.232Z,97031.81
2023-02-12T16:33:39.939Z,97040.16
2023-02-12T16:36:13.250Z,97046.03
2023-02-12T16:38:45.507Z,97054.84
2023-02-12T16:41:17.874Z,97050.56
2023-02-12T16:43:45.394Z,97049.50
2023-02-12T16:46:12.876Z,97055.22
2023-02-12T16:48:42.766Z,97060.31
2023-02-12T16:51:23.364Z,97059.00
2023-02-12T16:53:53.778Z,97060.19
2023-02-12T16:56:22.353Z,97059.25
2023-02-12T16:58:51.852Z,97068.16
2023-02-12T17:01:22.946Z,97060.84
2023-02-12T17:03:51.159Z,97064.38
2023-02-12T17:06:20.076Z,97065.22
2023-02-12T17:08:46.636Z,97066.78
2023-02-12T17:11:16.031Z,97068.16
2023-02-12T17:13:42.545Z,97067.63
2023-02-12T17:16:11.265Z,97067.63
2023-02-12T17:18:39.518Z,97066.28
2023-02-12T17:21:37.854Z,97069.75
2023-02-12T17:24:16.569Z,97072.06
2023-02-12T17:26:43.229Z,97071.94
2023-02-12T17:29:10.836Z,97074.81
2023-02-12T17:31:38.074Z,97067.56
2023-02-12T17:34:05.199Z,97065.88
2023-02-12T17:36:31.907Z,97064.63
2023-02-12T17:38:58.497Z,97067.56
2023-02-12T17:41:25.104Z,97062.53
2023-02-12T17:43:51.744Z,97060.25
2023-02-12T17:46:20.687Z,97068.66
2023-02-12T17:48:47.631Z,97065.72
2023-02-12T17:51:14.524Z,97068.13
2023-02-12T17:53:41.445Z,97060.16
2023-02-12T17:56:18.963Z,97067.94
2023-02-12T17:58:47.173Z,97068.66
2023-02-12T18:01:17.012Z,97075.31
2023-02-12T18:03:43.971Z,97081.47
2023-02-12T18:06:13.959Z,97070.59
2023-02-12T18:08:41.624Z,97073.63
2023-02-12T18:11:10.273Z,97071.13
2023-02-12T18:13:37.967Z,97068.59
2023-02-12T18:16:09.915Z,97076.94
2023-02-12T18:18:37.199Z,97071.31
2023-02-12T18:21:11.942Z,97069.84
2023-02-12T18:23:39.445Z,97077.34
2023-02-12T18:26:14.608Z,97075.56
2023-02-12T18:28:41.180Z,97073.59
2023-02-12T18:31:08.401Z,97081.09
2023-02-12T18:33:36.042Z,97066.97
2023-02-12T18:36:08.871Z,97076.94
2023-02-12T18:38:37.149Z,97068.31
2023-02-12T18:41:12.711Z,97066.44
2023-02-12T18:43:39.817Z,97066.59
2023-02-12T18:46:12.525Z,97071.06
2023-02-12T18:48:39.666Z,97073.56
2023-02-12T18:51:08.044Z,97072.81
2023-02-12T18:53:34.949Z,97069.31
2023-02-12T18:56:09.770Z,97065.50
2023-02-12T18:58:37.010Z,97071.50
2023-02-12T19:01:19.158Z,97072.78
2023-02-12T19:03:48.500Z,97070.94
2023-02-12T19:06:15.196Z,97071.78
2023-02-12T19:08:42.022Z,97067.91
2023-02-12T19:11:10.949Z,97070.75
2023-02-12T19:13:38.108Z,97071.59
2023-02-12T19:16:15.613Z,97066.19
2023-02-12T19:18:42.463Z,97069.00
2023-02-12T19:21:14.149Z,97069.66
2023-02-12T19:23:40.774Z,97063.34
2023-02-12T19:26:09.578Z,97067.53
2023-02-12T19:28:38.201Z,97067.41
2023-02-12T19:31:19.109Z,97064.91
2023-02-12T19:33:46.995Z,97064.50
2023-02-12T19:36:16.943Z,97068.88
2023-02-12T19:38:45.388Z,97065.91
2023-02-12T19:41:15.525Z,97062.16
2023-02-12T19:43:42.381Z,97056.66
2023-02-12T19:46:18.019Z,97062.06
2023-02-12T19:48:47.099Z,97058.56
2023-02-12T19:51:20.406Z,97068.78
2023-02-12T19:53:47.839Z,97057.19
2023-02-12T19:56:15.810Z,97058.03
2023-02-12T19:58:42.870Z,97064.91
2023-02-12T20:01:15.315Z,97061.38
2023-02-12T20:03:42.286Z,97055.84
2023-02-12T20:06:13.010Z,97058.34
2023-02-12T20:08:41.451Z,97053.84
2023-02-12T20:11:11.129Z,97059.06
2023-02-12T20:13:37.801Z,97059.06
2023-02-12T20:16:06.634Z,97062.91
2023-02-12T20:18:33.600Z,97063.81
2023-02-12T20:21:00.853Z,97063.91
2023-02-12T20:23:27.459Z,97063.97
2023-02-12T20:25:53.983Z,97063.81
2023-02-12T20:28:20.796Z,97057.97
2023-02-12T20:30:48.492Z,97059.53
2023-02-12T20:33:15.407Z,97068.03
2023-02-12T20:35:41.971Z,97068.22
2023-02-12T20:38:08.544Z,97066.13
2023-02-12T20:40:35.107Z,97067.06
2023-02-12T20:43:01.715Z,97067.97
2023-02-12T20:45:28.370Z,97066.34
2023-02-12T20:47:55.018Z,97067.53
2023-02-12T20:50:21.560Z,97073.53
2023-02-12T20:52:48.207Z,97069.31
2023-02-12T20:55:14.847Z,97080.13
2023-02-12T20:57:41.397Z,97071.16
2023-02-12T21:00:08.723Z,97082.47
2023-02-12T21:02:35.460Z,97081.56
2023-02-12T21:05:02.053Z,97082.38
2023-02-12T21:07:28.595Z,97084.00
2023-02-12T21:09:55.148Z,97080.97
2023-02-12T21:12:21.695Z,97083.28
2023-02-12T21:14:48.224Z,97084.06
2023-02-12T21:17:14.761Z,97078.84
2023-02-12T21:19:41.373Z,97080.31
2023-02-12T21:22:07.939Z,97075.19
2023-02-12T21:24:34.603Z,97076.97
2023-02-12T21:27:01.214Z,97078.84
2023-02-12T21:29:29.176Z,97071.94
2023-02-12T21:31:55.929Z,97069.50
2023-02-12T21:34:23.443Z,97074.06
2023-02-12T21:36:52.380Z,97084.22
2023-02-12T21:39:25.439Z,97089.22
2023-02-12T21:41:54.314Z,97086.97
2023-02-12T21:44:21.844Z,97084.13
2023-02-12T21:46:48.864Z,97087.81
2023-02-12T21:49:24.430Z,97087.09
2023-02-12T21:51:53.075Z,97089.91
2023-02-12T21:54:19.998Z,97087.50
2023-02-12T21:56:48.084Z,97088.16
2023-02-12T21:59:15.645Z,97083.59
2023-02-12T22:01:44.880Z,97087.03
2023-02-12T22:04:11.927Z,97090.09
2023-02-12T22:06:40.538Z,97084.56
2023-02-12T22:09:08.906Z,97092.16
2023-02-12T22:11:37.225Z,97090.06
2023-02-12T22:14:05.034Z,97092.16
2023-02-12T22:16:31.734Z,97095.41
2023-02-12T22:19:00.198Z,97091.47
2023-02-12T22:21:29.462Z,97091.84
2023-02-12T22:23:56.734Z,97093.91
2023-02-12T22:26:26.680Z,97093.09
2023-02-12T22:29:02.941Z,97098.38
2023-02-12T22:31:32.338Z,97103.22
2023-02-12T22:34:01.855Z,97098.22
2023-02-12T22:36:29.354Z,97104.81
2023-02-12T22:38:58.778Z,97102.00
2023-02-12T22:41:26.499Z,97098.78
2023-02-12T22:43:53.117Z,97102.66
2023-02-12T22:46:19.801Z,97103.66
2023-02-12T22:48:46.921Z,97102.81
2023-02-12T22:51:22.327Z,97093.97
2023-02-12T22:53:49.158Z,97109.06
2023-02-12T22:56:16.558Z,97097.03
2023-02-12T22:58:44.464Z,97096.69
2023-02-12T23:01:14.630Z,97097.25
2023-02-12T23:03:42.300Z,97092.84
2023-02-12T23:06:12.548Z,97092.41
2023-02-12T23:08:39.422Z,97094.34
2023-02-12T23:11:08.399Z,97092.50
2023-02-12T23:13:36.297Z,97090.81
2023-02-12T23:16:04.020Z,97086.31
2023-02-12T23:18:30.583Z,97084.53
2023-02-12T23:20:57.578Z,97091.09
2023-02-12T23:23:24.390Z,97086.97
2023-02-12T23:25:51.204Z,97093.53
2023-02-12T23:28:17.786Z,97090.47
2023-02-12T23:30:44.562Z,97097.69
2023-02-12T23:33:11.483Z,97095.59
2023-02-12T23:35:38.040Z,97087.25
2023-02-12T23:38:05.020Z,97091.19
2023-02-12T23:40:32.507Z,97082.72
2023-02-12T23:42:59.402Z,97082.84
2023-02-12T23:45:27.328Z,97082.72
2023-02-12T23:47:54.326Z,97081.56
2023-02-12T23:50:21.085Z,97079.34
2023-02-12T23:52:47.641Z,97078.88
2023-02-12T23:55:14.285Z,97074.09
2023-02-12T23:57:40.818Z,97077.47
